Time;durP1;ratioP1;P1;durP2;ratioP2;P2;SDS_P1;SDS_P2;PMS_P1;PMS_P2;Temp;Humidity;BMP_temperature;BMP_pressure;BME280_temperature;BME280_humidity;BME280_pressure;Samples;Min_cycle;Max_cycle;Signal;HPM_P1;HPM_P2
2022/07/12 00:00:17;;;;;;;4.95;2.97;;;;;;;17.59;100.00;100070.72;30695428;28;20070;-80
2022/07/12 00:15:18;;;;;;;7.30;4.38;;;;;;;17.44;100.00;100069.16;30734129;28;20499;-80
2022/07/12 00:30:22;;;;;;;3.92;3.30;;;;;;;17.21;100.00;100085.13;30707144;28;20058;-80
2022/07/12 00:45:48;;;;;;;7.28;3.47;;;;;;;17.11;100.00;100096.56;30740428;28;20065;-79
2022/07/12 01:00:51;;;;;;;63.28;34.17;;;;;;;17.17;100.00;100092.75;30722480;28;20055;-79
2022/07/12 01:15:53;;;;;;;4.55;3.10;;;;;;;17.01;100.00;100115.03;30729934;28;20153;-80
2022/07/12 01:30:55;;;;;;;6.72;4.28;;;;;;;16.78;100.00;100141.13;30721052;28;20106;-79
2022/07/12 01:45:57;;;;;;;3.90;3.30;;;;;;;16.65;100.00;100143.28;30715716;28;20052;-80
2022/07/12 02:00:59;;;;;;;8.27;3.10;;;;;;;16.37;100.00;100161.69;30702089;28;20047;-79
2022/07/12 02:16:01;;;;;;;7.55;4.22;;;;;;;16.38;100.00;100176.91;30703144;28;20057;-79
2022/07/12 02:31:04;;;;;;;6.87;3.70;;;;;;;16.39;100.00;100194.88;30696211;28;20051;-78
2022/07/12 02:46:13;;;;;;;10.17;4.13;;;;;;;16.52;100.00;100200.22;30730859;28;20386;-79
2022/07/12 03:01:15;;;;;;;4.90;3.93;;;;;;;16.79;100.00;100213.94;30705591;28;20062;-80
2022/07/12 03:16:18;;;;;;;6.38;4.75;;;;;;;17.29;97.29;100214.47;30692956;28;20506;-80
2022/07/12 03:31:20;;;;;;;4.60;3.55;;;;;;;17.69;92.99;100222.47;30729482;28;20055;-80
2022/07/12 03:46:22;;;;;;;4.53;3.25;;;;;;;18.33;91.54;100235.84;30685755;28;20063;-80
2022/07/12 04:01:24;;;;;;;8.65;3.63;;;;;;;18.91;86.83;100240.00;30691750;28;20058;-80
2022/07/12 04:16:27;;;;;;;6.45;3.65;;;;;;;19.20;85.51;100259.28;30701689;28;20086;-80
2022/07/12 04:31:29;;;;;;;3.33;3.03;;;;;;;19.60;84.43;100274.53;30729562;28;20055;-80
2022/07/12 04:46:31;;;;;;;4.70;3.30;;;;;;;20.26;81.55;100287.78;30727696;28;20098;-81
2022/07/12 05:01:34;;;;;;;5.18;2.50;;;;;;;21.01;76.77;100289.72;30700233;28;20082;-82
2022/07/12 05:16:36;;;;;;;5.60;2.90;;;;;;;21.53;76.24;100292.50;30728680;28;20055;-81
2022/07/12 05:31:38;;;;;;;4.13;2.00;;;;;;;22.05;69.36;100302.22;30730956;28;20510;-81
2022/07/12 05:46:40;;;;;;;3.40;1.95;;;;;;;22.46;68.04;100296.41;30717452;28;20059;-80
2022/07/12 06:01:43;;;;;;;2.93;1.80;;;;;;;23.05;64.89;100303.97;30711493;28;20055;-81
2022/07/12 06:16:45;;;;;;;2.40;1.87;;;;;;;22.94;59.67;100306.69;30749564;28;20145;-82
2022/07/12 06:31:47;;;;;;;13.70;7.27;;;;;;;23.41;61.06;100311.34;30722010;28;20047;-84
2022/07/12 06:46:49;;;;;;;2.40;2.00;;;;;;;23.86;60.99;100321.72;30712196;28;20043;-82
2022/07/12 07:01:52;;;;;;;4.10;1.60;;;;;;;24.48;57.48;100331.47;30731590;28;20074;-83
2022/07/12 07:16:56;;;;;;;3.00;1.55;;;;;;;25.04;54.00;100336.81;30732580;28;20051;-81
2022/07/12 07:31:58;;;;;;;1.77;1.00;;;;;;;25.52;50.32;100335.50;30729635;28;20051;-82
2022/07/12 07:47:00;;;;;;;;;;;;;;;25.77;46.59;100334.34;30770854;28;20432;-83
2022/07/12 08:02:03;;;;;;;2.28;1.42;;;;;;;26.31;45.81;100339.94;30734143;28;19923;-82
2022/07/12 08:17:05;;;;;;;4.07;2.20;;;;;;;26.67;42.03;100351.69;30715428;28;20069;-76
2022/07/12 08:32:07;;;;;;;5.28;1.33;;;;;;;26.79;43.93;100347.47;30717983;28;20051;-77
2022/07/12 08:47:10;;;;;;;2.25;1.42;;;;;;;27.54;39.67;100346.75;30739720;28;20051;-77
2022/07/12 09:02:12;;;;;;;6.13;3.65;;;;;;;28.07;40.06;100342.09;30736756;28;20067;-76
2022/07/12 09:17:21;;;;;;;2.88;1.30;;;;;;;27.47;38.93;100352.91;30730949;28;20082;-74
2022/07/12 09:47:45;;;;;;;2.13;1.03;;;;;;;28.46;40.45;100346.97;30758683;28;20516;-79
2022/07/12 10:02:50;;;;;;;1.42;1.00;;;;;;;28.97;38.46;100345.97;30770777;28;20138;-81
2022/07/12 10:17:55;;;;;;;2.17;1.13;;;;;;;28.93;38.41;100337.91;30712936;28;20489;-80
2022/07/12 10:32:59;;;;;;;40.38;29.63;;;;;;;29.67;36.79;100334.97;30740192;28;20082;-77
2022/07/12 10:48:07;;;;;;;66.07;41.03;;;;;;;28.50;37.72;100329.88;30714278;28;20046;-81
2022/07/12 11:03:15;;;;;;;2.50;1.20;;;;;;;28.67;36.97;100327.50;30737376;28;20528;-81
2022/07/12 11:18:35;;;;;;;1.98;0.80;;;;;;;29.22;34.07;100315.69;30710637;28;20412;-82
2022/07/12 11:33:44;;;;;;;3.40;2.17;;;;;;;27.94;35.92;100328.09;30683056;28;20109;-83
2022/07/12 11:48:46;;;;;;;4.95;1.38;;;;;;;27.27;37.50;100318.00;30707233;28;20350;-80
2022/07/12 12:03:49;;;;;;;3.72;1.02;;;;;;;26.75;37.50;100308.03;30687298;28;20131;-80
2022/07/12 12:18:51;;;;;;;2.65;1.52;;;;;;;26.45;37.28;100299.81;30740641;28;20489;-82
2022/07/12 12:33:58;;;;;;;19.13;9.02;;;;;;;26.20;37.92;100303.13;30722294;28;20126;-74
2022/07/12 12:49:00;;;;;;;2.25;1.50;;;;;;;26.17;37.68;100288.97;30715014;28;20043;-75
2022/07/12 13:04:02;;;;;;;1.83;1.45;;;;;;;26.01;37.61;100281.53;30710012;28;20497;-75
2022/07/12 13:19:05;;;;;;;2.08;1.40;;;;;;;26.06;37.02;100272.38;30719629;28;20407;-76
2022/07/12 13:34:07;;;;;;;2.58;1.02;;;;;;;25.99;36.67;100272.19;30716268;28;20523;-79
2022/07/12 13:49:09;;;;;;;1.40;1.23;;;;;;;25.77;36.15;100273.16;30716233;28;20039;-76
2022/07/12 14:04:11;;;;;;;1.38;0.90;;;;;;;25.65;36.27;100255.09;30738451;28;20118;-79
2022/07/12 14:19:12;;;;;;;;;;;;;;;25.60;36.02;100242.72;30723681;28;20061;-77
2022/07/12 14:34:15;;;;;;;2.75;1.13;;;;;;;25.43;35.37;100234.53;30727985;28;19929;-76
2022/07/12 14:49:17;;;;;;;4.47;2.72;;;;;;;25.51;34.76;100231.19;30713938;28;20425;-78
2022/07/12 15:04:19;;;;;;;2.75;1.40;;;;;;;25.45;35.63;100248.66;30728019;28;20059;-75
2022/07/12 15:19:21;;;;;;;;;;;;;;;25.21;32.70;100256.94;30708353;28;20059;-76
2022/07/12 15:34:23;;;;;;;5.57;3.63;;;;;;;24.95;35.06;100248.28;30716710;28;19930;-76
2022/07/12 15:49:25;;;;;;;5.40;3.83;;;;;;;24.73;35.43;100247.09;30726295;28;20156;-76
2022/07/12 16:04:27;;;;;;;7.33;4.30;;;;;;;24.56;36.23;100243.66;30726171;28;20058;-79
2022/07/12 16:19:31;;;;;;;;;;;;;;;24.32;36.76;100247.03;30770395;28;20044;-79
2022/07/12 16:34:34;;;;;;;;;;;;;;;24.17;37.50;100251.34;30766460;28;19922;-84
2022/07/12 16:49:36;;;;;;;6.47;5.53;;;;;;;23.96;38.13;100248.88;30768483;28;20009;-81
2022/07/12 17:04:38;;;;;;;12.17;5.37;;;;;;;23.81;38.24;100245.63;30725759;28;20051;-81
2022/07/12 17:19:40;;;;;;;8.90;5.20;;;;;;;23.54;38.08;100243.63;30761335;28;20058;-81
2022/07/12 17:34:43;;;;;;;6.65;5.30;;;;;;;23.21;39.09;100247.88;30712434;28;20068;-80
2022/07/12 17:49:46;;;;;;;7.00;4.70;;;;;;;22.97;39.88;100262.19;30717441;28;20138;-78
2022/07/12 18:04:48;;;;;;;6.63;4.10;;;;;;;22.69;41.49;100281.44;30715271;29;20087;-81
2022/07/12 18:19:50;;;;;;;6.43;3.80;;;;;;;22.45;42.62;100295.66;30709395;28;20059;-80
2022/07/12 18:34:52;;;;;;;11.90;5.70;;;;;;;22.37;43.71;100305.69;30707487;28;20058;-80
2022/07/12 18:49:55;;;;;;;7.90;3.55;;;;;;;22.20;43.70;100306.88;30733231;28;20048;-81
2022/07/12 19:04:57;;;;;;;5.47;3.53;;;;;;;22.17;44.16;100313.38;30727043;28;20058;-81
2022/07/12 19:19:59;;;;;;;5.70;2.80;;;;;;;22.07;44.88;100316.31;30705691;28;20043;-76
2022/07/12 19:35:01;;;;;;;4.70;3.50;;;;;;;21.97;45.50;100309.44;30722174;28;20506;-80
2022/07/12 19:50:05;;;;;;;6.57;3.22;;;;;;;21.91;46.10;100303.13;30694635;28;20060;-80
2022/07/12 20:05:09;;;;;;;4.97;3.10;;;;;;;21.74;46.64;100316.78;30716371;28;20470;-82
2022/07/12 20:20:12;;;;;;;5.15;3.25;;;;;;;21.55;46.89;100309.34;30708932;28;20070;-81
2022/07/12 20:35:21;;;;;;;3.50;2.65;;;;;;;21.37;47.46;100310.44;30716613;28;20063;-81
2022/07/12 20:50:22;;;;;;;4.43;2.92;;;;;;;21.19;47.59;100300.47;30710288;28;20054;-80
2022/07/12 21:05:24;;;;;;;88.95;22.90;;;;;;;21.10;47.85;100293.09;30697169;28;20052;-79
2022/07/12 21:20:26;;;;;;;7.68;4.15;;;;;;;21.01;48.55;100290.50;30721554;28;20048;-78
2022/07/12 21:35:29;;;;;;;3.67;2.78;;;;;;;20.93;48.98;100283.88;30706582;28;20788;-78
2022/07/12 21:50:38;;;;;;;3.75;2.70;;;;;;;20.82;49.50;100282.97;30731578;28;20055;-79
2022/07/12 22:05:40;;;;;;;5.13;2.80;;;;;;;20.66;49.16;100282.31;30703286;28;20047;-77
2022/07/12 22:20:42;;;;;;;5.47;2.00;;;;;;;20.59;49.41;100271.69;30752265;28;20059;-78
2022/07/12 22:35:46;;;;;;;4.55;1.60;;;;;;;20.62;48.89;100269.97;30715670;28;20063;-78
2022/07/12 23:06:25;;;;;;;3.97;1.52;;;;;;;20.32;48.96;100269.28;30736632;28;20047;-77
2022/07/12 23:21:27;;;;;;;1.90;1.30;;;;;;;20.29;49.32;100273.78;30718113;28;20056;-79
2022/07/12 23:36:30;;;;;;;1.73;1.27;;;;;;;20.08;49.23;100272.97;30710502;28;20062;-78
2022/07/12 23:51:32;;;;;;;5.65;1.30;;;;;;;19.79;51.23;100270.31;30707520;28;20047;-78
